createdAt,value
2022-12-31T00:01:13.219Z,10.01
2022-12-31T00:03:44.209Z,10.00
2022-12-31T00:06:19.142Z,10.00
2022-12-31T00:08:48.402Z,10.04
2022-12-31T00:11:17.319Z,10.03
2022-12-31T00:13:46.866Z,10.04
2022-12-31T00:16:19.354Z,10.05
2022-12-31T00:18:52.368Z,10.07
2022-12-31T00:21:22.658Z,10.09
2022-12-31T00:23:51.111Z,10.12
2022-12-31T00:26:24.841Z,10.13
2022-12-31T00:28:54.953Z,10.13
2022-12-31T00:31:25.526Z,10.12
2022-12-31T00:33:55.952Z,10.12
2022-12-31T00:36:28.035Z,10.10
2022-12-31T00:38:58.803Z,10.08
2022-12-31T00:41:29.259Z,10.08
2022-12-31T00:43:57.796Z,10.09
2022-12-31T00:46:26.770Z,10.11
2022-12-31T00:48:56.985Z,10.13
2022-12-31T00:51:27.520Z,10.12
2022-12-31T00:53:56.932Z,10.11
2022-12-31T00:56:28.071Z,10.08
2022-12-31T00:58:56.847Z,10.06
2022-12-31T01:01:27.948Z,10.05
2022-12-31T01:04:01.828Z,10.05
2022-12-31T01:06:30.497Z,10.04
2022-12-31T01:08:59.157Z,10.04
2022-12-31T01:11:30.060Z,10.03
2022-12-31T01:14:00.537Z,10.02
2022-12-31T01:16:33.402Z,10.01
2022-12-31T01:19:06.950Z,10.02
2022-12-31T01:21:36.577Z,10.03
2022-12-31T01:24:05.616Z,10.01
2022-12-31T01:26:34.199Z,9.98
2022-12-31T01:29:02.630Z,9.97
2022-12-31T01:31:31.269Z,9.93
2022-12-31T01:34:00.027Z,9.94
2022-12-31T01:36:32.042Z,9.93
2022-12-31T01:39:03.138Z,9.92
2022-12-31T01:41:36.718Z,9.91
2022-12-31T01:44:51.767Z,9.90
2022-12-31T01:47:30.475Z,9.94
2022-12-31T01:50:04.521Z,9.93
2022-12-31T01:52:38.544Z,9.93
2022-12-31T01:55:16.028Z,9.91
2022-12-31T01:57:47.020Z,9.91
2022-12-31T02:00:17.377Z,9.94
2022-12-31T02:02:45.866Z,9.95
2022-12-31T02:05:24.576Z,9.99
2022-12-31T02:07:55.452Z,10.02
2022-12-31T02:10:23.909Z,10.02
2022-12-31T02:12:53.374Z,10.00
2022-12-31T02:15:38.446Z,9.98
2022-12-31T02:18:19.016Z,9.98
2022-12-31T02:21:29.742Z,10.00
2022-12-31T02:24:51.031Z,9.98
2022-12-31T02:27:36.823Z,9.98
2022-12-31T02:30:14.263Z,10.02
2022-12-31T02:33:05.397Z,10.04
2022-12-31T02:35:42.838Z,10.04
2022-12-31T02:38:20.198Z,10.03
2022-12-31T02:40:49.119Z,10.04
2022-12-31T02:43:17.514Z,10.04
2022-12-31T02:45:55.614Z,10.04
2022-12-31T02:48:41.903Z,10.06
2022-12-31T02:51:26.130Z,10.10
2022-12-31T02:54:18.582Z,10.12
2022-12-31T02:56:58.373Z,10.13
2022-12-31T02:59:52.174Z,10.12
2022-12-31T03:02:24.270Z,10.11
2022-12-31T03:04:54.862Z,10.11
2022-12-31T03:07:25.362Z,10.10
2022-12-31T03:09:54.201Z,10.12
2022-12-31T03:12:44.123Z,10.13
2022-12-31T03:15:20.979Z,10.12
2022-12-31T03:17:54.955Z,10.12
2022-12-31T03:20:44.710Z,10.13
2022-12-31T03:23:16.542Z,10.13
2022-12-31T03:25:44.623Z,10.17
2022-12-31T03:28:16.977Z,10.19
2022-12-31T03:30:50.152Z,10.19
2022-12-31T03:33:21.238Z,10.20
2022-12-31T03:35:50.790Z,10.18
2022-12-31T03:38:20.447Z,10.17
2022-12-31T03:40:50.916Z,10.16
2022-12-31T03:43:20.298Z,10.14
2022-12-31T03:45:51.442Z,10.13
2022-12-31T03:48:22.632Z,10.11
2022-12-31T03:50:51.460Z,10.14
2022-12-31T03:53:20.192Z,10.16
2022-12-31T03:55:53.062Z,10.17
2022-12-31T03:58:21.964Z,10.19
2022-12-31T04:00:50.904Z,10.24
2022-12-31T04:03:20.967Z,10.30
2022-12-31T04:05:54.908Z,10.31
2022-12-31T04:08:23.315Z,10.31
2022-12-31T04:10:51.714Z,10.28
2022-12-31T04:13:20.192Z,10.26
2022-12-31T04:15:51.982Z,10.25
2022-12-31T04:18:21.772Z,10.25
2022-12-31T04:20:50.189Z,10.23
2022-12-31T04:23:18.800Z,10.21
2022-12-31T04:25:47.309Z,10.21
2022-12-31T04:28:15.722Z,10.21
2022-12-31T04:30:45.129Z,10.20
2022-12-31T04:33:13.579Z,10.23
2022-12-31T04:35:43.347Z,10.23
2022-12-31T04:38:11.739Z,10.24
2022-12-31T04:41:00.835Z,10.24
2022-12-31T04:43:29.358Z,10.24
2022-12-31T04:45:57.888Z,10.26
2022-12-31T04:48:26.372Z,10.26
2022-12-31T04:50:56.133Z,10.25
2022-12-31T04:53:25.023Z,10.25
2022-12-31T04:55:53.701Z,10.23
2022-12-31T04:58:22.901Z,10.20
2022-12-31T05:00:54.722Z,10.17
2022-12-31T05:03:25.893Z,10.19
2022-12-31T05:06:00.815Z,10.21
2022-12-31T05:08:29.416Z,10.26
2022-12-31T05:10:57.869Z,10.25
2022-12-31T05:13:32.774Z,10.24
2022-12-31T05:16:02.168Z,10.24
2022-12-31T05:18:31.072Z,10.23
2022-12-31T05:21:00.968Z,10.22
2022-12-31T05:23:29.497Z,10.22
2022-12-31T05:25:59.646Z,10.21
2022-12-31T05:28:28.097Z,10.20
2022-12-31T05:30:56.522Z,10.20
2022-12-31T05:33:24.980Z,10.19
2022-12-31T05:35:53.393Z,10.19
2022-12-31T05:38:23.158Z,10.19
2022-12-31T05:40:51.581Z,10.19
2022-12-31T05:43:19.964Z,10.18
2022-12-31T05:45:48.396Z,10.18
2022-12-31T05:48:16.818Z,10.21
2022-12-31T05:50:45.201Z,10.23
2022-12-31T05:53:13.591Z,10.24
2022-12-31T05:55:43.384Z,10.23
2022-12-31T05:58:11.767Z,10.22
2022-12-31T06:00:40.243Z,10.21
2022-12-31T06:03:08.976Z,10.20
2022-12-31T06:05:40.887Z,10.21
2022-12-31T06:08:09.336Z,10.19
2022-12-31T06:10:37.977Z,10.19
2022-12-31T06:13:08.142Z,10.20
2022-12-31T06:15:40.572Z,10.21
2022-12-31T06:18:09.420Z,10.22
2022-12-31T06:20:38.658Z,10.23
2022-12-31T06:23:07.253Z,10.22
2022-12-31T06:25:37.425Z,10.22
2022-12-31T06:28:07.669Z,10.20
2022-12-31T06:30:36.029Z,10.18
2022-12-31T06:33:04.473Z,10.18
2022-12-31T06:35:32.864Z,10.16
2022-12-31T06:38:01.494Z,10.19
2022-12-31T06:40:30.153Z,10.20
2022-12-31T06:43:00.296Z,10.20
2022-12-31T06:45:30.426Z,10.18
2022-12-31T06:47:58.816Z,10.20
2022-12-31T06:50:27.236Z,10.21
2022-12-31T06:52:55.654Z,10.23
2022-12-31T06:55:24.996Z,10.27
2022-12-31T06:57:54.246Z,10.31
2022-12-31T07:00:23.769Z,10.33
2022-12-31T07:03:17.739Z,10.32
2022-12-31T07:05:50.778Z,10.29
2022-12-31T07:08:36.074Z,10.27
2022-12-31T07:11:13.551Z,10.25
2022-12-31T07:14:19.503Z,10.23
2022-12-31T07:17:07.916Z,10.25
2022-12-31T07:19:57.106Z,10.27
2022-12-31T07:22:26.841Z,10.30
2022-12-31T07:24:56.276Z,10.31
2022-12-31T07:27:46.986Z,10.32
2022-12-31T07:30:18.842Z,10.38
2022-12-31T07:33:19.560Z,10.39
2022-12-31T07:36:06.813Z,10.43
2022-12-31T07:38:47.954Z,10.48
2022-12-31T07:41:35.113Z,10.53
2022-12-31T07:44:09.182Z,10.56
2022-12-31T07:46:44.283Z,10.61
2022-12-31T07:49:14.926Z,10.63
2022-12-31T07:51:45.649Z,10.67
2022-12-31T07:54:14.545Z,10.73
2022-12-31T07:56:44.134Z,10.78
2022-12-31T07:59:33.602Z,10.80
2022-12-31T08:02:12.164Z,10.89
2022-12-31T08:04:55.001Z,10.98
2022-12-31T08:07:34.084Z,11.06
2022-12-31T08:10:15.678Z,11.14
2022-12-31T08:12:50.208Z,11.21
2022-12-31T08:15:24.129Z,11.29
2022-12-31T08:17:56.144Z,11.34
2022-12-31T08:20:24.681Z,11.41
2022-12-31T08:23:25.820Z,11.41
2022-12-31T08:26:13.079Z,11.44
2022-12-31T08:28:57.924Z,11.45
2022-12-31T08:31:36.527Z,11.49
2022-12-31T08:34:15.455Z,11.52
2022-12-31T08:36:53.383Z,11.52
2022-12-31T08:39:46.088Z,11.50
2022-12-31T08:42:26.007Z,11.51
2022-12-31T08:45:07.277Z,11.52
2022-12-31T08:47:46.772Z,11.57
2022-12-31T08:50:17.769Z,11.66
2022-12-31T08:52:47.549Z,11.71
2022-12-31T08:55:21.193Z,11.73
2022-12-31T08:58:01.683Z,11.75
2022-12-31T09:00:31.741Z,11.79
2022-12-31T09:03:23.737Z,11.78
2022-12-31T09:06:02.806Z,11.83
2022-12-31T09:08:40.841Z,11.87
2022-12-31T09:11:22.929Z,11.94
2022-12-31T09:14:41.686Z,11.99
2022-12-31T09:17:32.330Z,12.02
2022-12-31T09:20:01.535Z,12.03
2022-12-31T09:22:30.649Z,12.03
2022-12-31T09:24:59.821Z,12.05
2022-12-31T09:27:36.271Z,12.08
2022-12-31T09:30:08.736Z,12.11
2022-12-31T09:32:48.653Z,12.12
2022-12-31T09:35:30.702Z,12.13
2022-12-31T09:38:11.473Z,12.17
2022-12-31T09:41:13.061Z,12.22
2022-12-31T09:44:25.755Z,12.30
2022-12-31T09:47:42.013Z,12.38
2022-12-31T09:51:05.261Z,12.46
2022-12-31T09:53:43.404Z,12.54
2022-12-31T09:56:21.772Z,12.62
2022-12-31T09:59:04.159Z,12.70
2022-12-31T10:01:50.633Z,12.78
2022-12-31T10:05:07.092Z,12.85
2022-12-31T10:07:53.585Z,12.92
2022-12-31T10:10:31.462Z,12.98
2022-12-31T10:13:39.676Z,13.02
2022-12-31T10:16:48.918Z,13.06
2022-12-31T10:19:55.471Z,13.07
2022-12-31T10:22:47.579Z,13.12
2022-12-31T10:26:02.216Z,13.18
2022-12-31T10:28:41.435Z,13.26
2022-12-31T10:31:17.716Z,13.36
2022-12-31T10:33:58.210Z,13.46
2022-12-31T10:36:36.113Z,13.57
2022-12-31T10:39:24.273Z,13.64
2022-12-31T10:42:46.285Z,13.72
2022-12-31T10:46:09.147Z,13.77
2022-12-31T10:49:27.941Z,13.85
2022-12-31T10:52:46.298Z,13.91
2022-12-31T10:56:15.915Z,13.94
2022-12-31T10:59:31.412Z,13.96
2022-12-31T11:02:28.254Z,13.99
2022-12-31T11:05:57.291Z,14.04
2022-12-31T11:09:07.823Z,14.13
2022-12-31T11:11:46.329Z,14.19
2022-12-31T11:14:53.056Z,14.20
2022-12-31T11:17:38.715Z,14.26
2022-12-31T11:20:39.888Z,14.36
2022-12-31T11:23:28.108Z,14.53
2022-12-31T11:26:06.296Z,14.69
2022-12-31T11:29:01.570Z,14.73
2022-12-31T11:31:52.367Z,14.69
2022-12-31T11:35:15.045Z,14.64
2022-12-31T11:37:49.092Z,14.74
2022-12-31T11:40:34.856Z,14.68
2022-12-31T11:43:16.258Z,14.66
2022-12-31T11:46:15.891Z,14.61
2022-12-31T11:49:00.683Z,14.61
2022-12-31T11:51:53.343Z,14.66
2022-12-31T11:55:13.036Z,14.73
2022-12-31T11:57:47.759Z,14.83
2022-12-31T12:00:20.840Z,14.92
2022-12-31T12:02:52.155Z,15.02
2022-12-31T12:05:23.938Z,15.08
2022-12-31T12:07:54.786Z,15.14
2022-12-31T12:10:33.779Z,15.14
2022-12-31T12:13:20.705Z,15.10
2022-12-31T12:15:52.107Z,15.08
2022-12-31T12:18:30.298Z,15.04
2022-12-31T12:21:10.913Z,15.00
2022-12-31T12:23:40.370Z,14.98
2022-12-31T12:26:26.255Z,14.98
2022-12-31T12:28:56.077Z,15.04
2022-12-31T12:31:26.925Z,15.08
2022-12-31T12:33:55.435Z,15.09
2022-12-31T12:36:23.805Z,15.07
2022-12-31T12:39:03.804Z,15.04
2022-12-31T12:41:33.018Z,15.05
2022-12-31T12:44:08.282Z,15.07
2022-12-31T12:46:48.041Z,15.10
2022-12-31T12:49:25.906Z,15.10
2022-12-31T12:52:26.998Z,15.10
2022-12-31T12:55:11.728Z,15.10
2022-12-31T12:57:51.613Z,15.16
2022-12-31T13:00:25.096Z,15.25
2022-12-31T13:03:35.619Z,15.34
2022-12-31T13:06:29.339Z,15.39
2022-12-31T13:09:15.554Z,15.44
2022-12-31T13:11:58.976Z,15.49
2022-12-31T13:14:38.051Z,15.53
2022-12-31T13:17:30.763Z,15.52
2022-12-31T13:20:06.745Z,15.54
2022-12-31T13:22:41.144Z,15.55
2022-12-31T13:25:25.413Z,15.54
2022-12-31T13:27:58.324Z,15.52
2022-12-31T13:30:33.429Z,15.50
2022-12-31T13:33:15.538Z,15.50
2022-12-31T13:35:49.550Z,15.52
2022-12-31T13:38:23.847Z,15.50
2022-12-31T13:41:03.102Z,15.44
2022-12-31T13:43:44.585Z,15.39
2022-12-31T13:46:24.861Z,15.34
2022-12-31T13:48:59.442Z,15.30
2022-12-31T13:51:41.251Z,15.26
2022-12-31T13:54:25.841Z,15.19
2022-12-31T13:56:54.929Z,15.15
2022-12-31T13:59:29.548Z,15.09
2022-12-31T14:02:09.381Z,15.07
2022-12-31T14:04:46.283Z,15.04
2022-12-31T14:07:20.850Z,14.99
2022-12-31T14:09:49.515Z,14.96
2022-12-31T14:12:33.692Z,14.88
2022-12-31T14:15:15.326Z,14.84
2022-12-31T14:17:51.749Z,14.81
2022-12-31T14:20:30.502Z,14.76
2022-12-31T14:23:12.113Z,14.71
2022-12-31T14:25:46.512Z,14.67
2022-12-31T14:28:21.940Z,14.64
2022-12-31T14:30:54.996Z,14.61
2022-12-31T14:33:38.845Z,14.59
2022-12-31T14:36:29.154Z,14.55
2022-12-31T14:39:17.692Z,14.52
2022-12-31T14:41:59.284Z,14.48
2022-12-31T14:44:52.064Z,14.43
2022-12-31T14:47:34.063Z,14.40
2022-12-31T14:50:11.059Z,14.36
2022-12-31T14:52:53.336Z,14.30
2022-12-31T14:55:33.766Z,14.25
2022-12-31T15:00:55.908Z,14.15
2022-12-31T15:03:34.798Z,14.11
2022-12-31T15:06:42.166Z,14.02
2022-12-31T15:09:24.643Z,13.98
2022-12-31T15:12:18.556Z,13.94
2022-12-31T15:15:29.348Z,13.88
2022-12-31T15:18:15.121Z,13.85
2022-12-31T15:21:14.236Z,13.80
2022-12-31T15:23:46.238Z,13.79
2022-12-31T15:26:25.135Z,13.79
2022-12-31T15:29:03.828Z,13.80
2022-12-31T15:31:34.899Z,13.81
2022-12-31T15:34:05.988Z,13.83
2022-12-31T15:36:38.630Z,13.85
2022-12-31T15:39:28.067Z,13.84
2022-12-31T15:44:53.024Z,13.89
2022-12-31T15:47:29.994Z,13.91
2022-12-31T15:50:03.634Z,13.93
2022-12-31T15:52:40.879Z,13.95
2022-12-31T15:55:17.521Z,13.96
2022-12-31T15:57:48.191Z,13.98
2022-12-31T16:00:22.396Z,14.01
2022-12-31T16:02:54.607Z,14.03
2022-12-31T16:05:26.306Z,14.03
2022-12-31T16:07:56.541Z,14.04
2022-12-31T16:10:29.665Z,14.05
2022-12-31T16:13:00.892Z,14.06
2022-12-31T16:15:32.612Z,14.07
2022-12-31T16:18:05.736Z,14.09
2022-12-31T16:20:42.449Z,14.10
2022-12-31T16:23:25.033Z,14.12
2022-12-31T16:25:59.110Z,14.14
2022-12-31T16:28:32.589Z,14.16
2022-12-31T16:31:05.193Z,14.19
2022-12-31T16:33:35.675Z,14.20
2022-12-31T16:36:08.420Z,14.20
2022-12-31T16:38:46.656Z,14.17
2022-12-31T16:41:21.235Z,14.15
2022-12-31T16:43:52.678Z,14.13
2022-12-31T16:46:27.120Z,14.09
2022-12-31T16:48:58.320Z,14.07
2022-12-31T16:51:31.874Z,14.04
2022-12-31T16:54:02.516Z,14.03
2022-12-31T16:56:35.866Z,13.99
2022-12-31T16:59:14.223Z,13.96
2022-12-31T17:01:43.710Z,13.96
2022-12-31T17:04:18.006Z,13.94
2022-12-31T17:06:46.518Z,13.94
2022-12-31T17:09:20.828Z,13.94
2022-12-31T17:11:54.520Z,13.91
2022-12-31T17:14:26.885Z,13.89
2022-12-31T17:17:02.997Z,13.85
2022-12-31T17:19:45.009Z,13.80
2022-12-31T17:22:32.801Z,13.77
2022-12-31T17:25:06.637Z,13.73
2022-12-31T17:27:36.944Z,13.70
2022-12-31T17:30:40.414Z,13.63
2022-12-31T17:33:32.641Z,13.58
2022-12-31T17:36:24.125Z,13.50
2022-12-31T17:38:52.617Z,13.47
2022-12-31T17:41:27.360Z,13.41
2022-12-31T17:43:57.872Z,13.38
2022-12-31T17:46:28.232Z,13.34
2022-12-31T17:49:02.913Z,13.31
2022-12-31T17:51:31.411Z,13.27
2022-12-31T17:54:01.823Z,13.24
2022-12-31T17:56:30.379Z,13.20
2022-12-31T17:59:00.477Z,13.18
2022-12-31T18:01:30.633Z,13.14
2022-12-31T18:03:59.302Z,13.11
2022-12-31T18:06:27.804Z,13.10
2022-12-31T18:08:56.266Z,13.07
2022-12-31T18:11:26.093Z,13.04
2022-12-31T18:13:55.411Z,13.02
2022-12-31T18:16:23.971Z,13.01
2022-12-31T18:18:53.826Z,12.99
2022-12-31T18:21:29.206Z,12.97
2022-12-31T18:26:26.662Z,12.94
2022-12-31T18:28:55.944Z,12.93
2022-12-31T18:31:28.323Z,12.91
2022-12-31T18:34:00.151Z,12.90
2022-12-31T18:36:30.365Z,12.87
2022-12-31T18:38:58.799Z,12.87
2022-12-31T18:41:35.462Z,12.86
2022-12-31T18:44:03.972Z,12.85
2022-12-31T18:46:32.506Z,12.83
2022-12-31T18:49:02.368Z,12.84
2022-12-31T18:51:32.433Z,12.82
2022-12-31T18:54:01.340Z,12.80
2022-12-31T18:56:30.127Z,12.79
2022-12-31T18:58:59.788Z,12.78
2022-12-31T19:01:31.596Z,12.76
2022-12-31T19:04:04.396Z,12.76
2022-12-31T19:06:32.929Z,12.75
2022-12-31T19:09:01.409Z,12.74
2022-12-31T19:11:30.007Z,12.72
2022-12-31T19:13:58.434Z,12.71
2022-12-31T19:16:26.943Z,12.70
2022-12-31T19:18:55.774Z,12.68
2022-12-31T19:21:25.667Z,12.66
2022-12-31T19:23:55.653Z,12.65
2022-12-31T19:26:24.545Z,12.63
2022-12-31T19:28:53.083Z,12.61
2022-12-31T19:31:21.524Z,12.59
2022-12-31T19:33:49.996Z,12.56
2022-12-31T19:36:20.980Z,12.52
2022-12-31T19:38:50.788Z,12.50
2022-12-31T19:41:21.358Z,12.47
2022-12-31T19:43:50.629Z,12.46
2022-12-31T19:46:19.990Z,12.43
2022-12-31T19:48:48.686Z,12.41
2022-12-31T19:51:19.825Z,12.40
2022-12-31T19:53:50.910Z,12.39
2022-12-31T19:56:21.335Z,12.37
2022-12-31T19:58:49.799Z,12.36
2022-12-31T20:01:22.086Z,12.34
2022-12-31T20:03:51.193Z,12.34
2022-12-31T20:06:20.751Z,12.33
2022-12-31T20:08:50.572Z,12.31
2022-12-31T20:11:21.386Z,12.29
2022-12-31T20:13:52.251Z,12.30
2022-12-31T20:16:23.762Z,12.28
2022-12-31T20:18:52.402Z,12.27
2022-12-31T20:21:24.142Z,12.27
2022-12-31T20:23:55.826Z,12.26
2022-12-31T20:26:26.501Z,12.24
2022-12-31T20:28:55.270Z,12.25
2022-12-31T20:31:26.511Z,12.24
2022-12-31T20:33:56.112Z,12.25
2022-12-31T20:36:25.833Z,12.22
2022-12-31T20:38:55.742Z,12.22
2022-12-31T20:41:25.083Z,12.21
2022-12-31T20:43:53.703Z,12.20
2022-12-31T20:46:24.730Z,12.19
2022-12-31T20:48:55.514Z,12.19
2022-12-31T20:51:25.977Z,12.20
2022-12-31T20:53:58.048Z,12.18
2022-12-31T20:56:31.440Z,12.17
2022-12-31T20:59:00.697Z,12.18
2022-12-31T21:01:48.108Z,12.17
2022-12-31T21:04:18.505Z,12.15
2022-12-31T21:06:48.000Z,12.14
2022-12-31T21:09:17.857Z,12.13
2022-12-31T21:12:03.570Z,12.12
2022-12-31T21:14:32.029Z,12.08
2022-12-31T21:17:00.458Z,12.07
2022-12-31T21:19:28.947Z,12.07
2022-12-31T21:21:57.425Z,12.07
2022-12-31T21:24:27.265Z,12.06
2022-12-31T21:26:57.064Z,12.04
2022-12-31T21:29:27.816Z,12.04
2022-12-31T21:31:59.973Z,12.03
2022-12-31T21:34:28.433Z,12.03
2022-12-31T21:36:57.075Z,12.02
2022-12-31T21:39:26.914Z,12.01
2022-12-31T21:41:55.403Z,11.99
2022-12-31T21:44:26.061Z,11.97
2022-12-31T21:47:38.252Z,11.95
2022-12-31T21:50:09.522Z,11.94
2022-12-31T21:52:38.062Z,11.92
2022-12-31T21:55:27.197Z,11.89
2022-12-31T22:01:16.537Z,11.84
2022-12-31T22:03:45.593Z,11.82
2022-12-31T22:06:20.527Z,11.78
2022-12-31T22:08:51.559Z,11.75
2022-12-31T22:11:24.681Z,11.73
2022-12-31T22:13:54.634Z,11.72
2022-12-31T22:16:24.065Z,11.70
2022-12-31T22:18:55.595Z,11.69
2022-12-31T22:21:25.775Z,11.68
2022-12-31T22:23:56.285Z,11.68
2022-12-31T22:26:29.020Z,11.65
2022-12-31T22:28:59.559Z,11.63
2022-12-31T22:31:31.219Z,11.61
2022-12-31T22:34:00.332Z,11.61
2022-12-31T22:36:28.899Z,11.59
2022-12-31T22:38:59.992Z,11.57
2022-12-31T22:41:30.287Z,11.55
2022-12-31T22:44:04.034Z,11.55
2022-12-31T22:46:34.846Z,11.54
2022-12-31T22:49:05.368Z,11.52
2022-12-31T22:51:57.671Z,11.52
2022-12-31T22:54:23.002Z,11.51
2022-12-31T22:56:52.886Z,11.52
2022-12-31T22:59:21.314Z,11.51
2022-12-31T23:01:49.753Z,11.50
2022-12-31T23:04:18.299Z,11.51
2022-12-31T23:06:46.790Z,11.52
2022-12-31T23:09:34.833Z,11.51
2022-12-31T23:12:06.131Z,11.49
2022-12-31T23:14:52.583Z,11.50
2022-12-31T23:17:42.101Z,11.49
2022-12-31T23:20:32.797Z,11.48
2022-12-31T23:23:08.235Z,11.46
2022-12-31T23:25:39.305Z,11.45
2022-12-31T23:28:11.586Z,11.43
2022-12-31T23:30:41.060Z,11.41
2022-12-31T23:33:13.521Z,11.41
2022-12-31T23:35:41.961Z,11.40
2022-12-31T23:38:10.648Z,11.39
2022-12-31T23:40:39.262Z,11.38
2022-12-31T23:43:11.805Z,11.36
2022-12-31T23:45:40.274Z,11.34
2022-12-31T23:48:08.750Z,11.33
2022-12-31T23:50:37.244Z,11.30
2022-12-31T23:53:05.721Z,11.29
2022-12-31T23:55:34.188Z,11.27
2022-12-31T23:58:02.664Z,11.25
